Time;durP1;ratioP1;P1;durP2;ratioP2;P2;SDS_P1;SDS_P2;PMS_P1;PMS_P2;Temp;Humidity;BMP_temperature;BMP_pressure;BME280_temperature;BME280_humidity;BME280_pressure;Samples;Min_cycle;Max_cycle;Signal;HPM_P1;HPM_P2
2022/11/05 00:11:04;;;;;;;7.78;3.88;;;10.80;99.90;;;10.71;100.00;100861.00;5171948;28;20050;-79
2022/11/05 00:16:44;;;;;;;9.55;4.60;;;10.60;99.90;;;10.60;100.00;100866.72;5190133;28;20056;-78
2022/11/05 00:19:17;;;;;;;8.27;3.85;;;10.60;99.90;;;10.57;100.00;100865.72;5172847;28;20469;-79
2022/11/05 00:27:32;;;;;;;10.93;4.82;;;10.50;99.90;;;10.53;100.00;100880.38;5191347;28;20057;-77
2022/11/05 00:30:06;;;;;;;11.80;5.70;;;10.50;99.90;;;10.53;100.00;100879.47;5172354;28;20495;-77
2022/11/05 00:32:38;;;;;;;10.20;4.88;;;10.50;99.90;;;10.53;100.00;100884.69;5172965;28;20064;-78
2022/11/05 00:35:12;;;;;;;12.32;5.25;;;10.50;99.90;;;10.54;100.00;100876.91;5173240;28;20049;-77
2022/11/05 00:37:44;;;;;;;10.27;4.82;;;10.50;99.90;;;10.57;100.00;100887.47;5189792;28;20058;-76
2022/11/05 00:40:17;;;;;;;11.23;4.88;;;10.50;99.90;;;10.58;100.00;100891.84;5173710;28;20053;-77
2022/11/05 00:45:39;;;;;;;9.93;4.57;;;10.60;99.90;;;10.60;100.00;100898.00;5172805;28;20046;-79
2022/11/05 00:51:03;;;;;;;11.10;5.50;;;10.60;99.90;;;10.60;100.00;100913.63;5191618;28;20046;-78
2022/11/05 00:53:35;;;;;;;10.32;4.80;;;10.60;99.90;;;10.58;100.00;100907.50;5198352;28;20112;-76
2022/11/05 00:56:08;;;;;;;11.52;5.15;;;10.60;99.90;;;10.55;100.00;100915.19;5203590;28;20098;-78
2022/11/05 00:58:41;;;;;;;11.68;5.10;;;10.60;99.90;;;10.53;100.00;100924.66;5188047;28;20030;-78
2022/11/05 01:01:13;;;;;;;11.73;4.88;;;10.50;99.90;;;10.49;100.00;100925.38;5193059;28;20033;-79
2022/11/05 01:03:45;;;;;;;11.10;4.45;;;10.50;99.90;;;10.44;100.00;100937.38;5191438;28;20049;-79
2022/11/05 01:06:20;;;;;;;9.93;4.90;;;10.50;99.90;;;10.40;100.00;100945.00;5192734;28;20045;-78
2022/11/05 01:08:52;;;;;;;10.88;5.25;;;10.40;99.90;;;10.35;100.00;100942.22;5211130;28;20052;-78
2022/11/05 01:11:35;;;;;;;10.02;4.43;;;10.40;99.90;;;10.32;100.00;100942.13;5211144;28;20059;-79
2022/11/05 01:14:10;;;;;;;9.57;4.97;;;10.30;99.90;;;10.27;100.00;100941.94;5210106;28;20045;-78
2022/11/05 01:16:44;;;;;;;9.27;4.50;;;10.30;99.90;;;10.25;100.00;100947.94;5210037;28;20057;-78
2022/11/05 01:19:16;;;;;;;10.20;4.70;;;10.30;99.90;;;10.21;100.00;100953.81;5210425;28;20105;-78
2022/11/05 01:21:49;;;;;;;10.82;4.63;;;10.20;99.90;;;10.16;100.00;100950.13;5192825;28;20068;-78
2022/11/05 01:24:21;;;;;;;11.23;4.47;;;10.20;99.90;;;10.12;100.00;100946.53;5192972;28;20076;-78
2022/11/05 01:26:54;;;;;;;11.00;4.97;;;10.10;99.90;;;10.10;100.00;100944.69;5210552;28;20559;-78
2022/11/05 01:29:27;;;;;;;9.77;4.68;;;10.10;99.90;;;10.07;100.00;100950.66;5192548;28;20535;-77
2022/11/05 01:32:00;;;;;;;8.85;4.57;;;10.10;99.90;;;10.03;100.00;100944.44;5209764;28;20056;-79
2022/11/05 01:34:32;;;;;;;10.23;4.68;;;10.10;99.90;;;10.01;100.00;100947.81;5210431;28;20049;-78
2022/11/05 01:37:05;;;;;;;10.10;4.35;;;10.00;99.90;;;9.98;100.00;100951.19;5192078;28;20091;-79
2022/11/05 01:39:37;;;;;;;9.20;4.03;;;10.00;99.90;;;9.95;100.00;100958.88;5193127;28;20071;-77
2022/11/05 01:42:19;;;;;;;7.75;4.07;;;10.00;99.90;;;9.93;100.00;100959.66;5192943;28;20136;-79
2022/11/05 01:45:03;;;;;;;7.38;3.65;;;10.00;99.90;;;9.88;100.00;100972.47;5193004;28;20118;-78
2022/11/05 01:47:48;;;;;;;9.10;3.63;;;9.90;99.90;;;9.84;100.00;100973.16;5191969;28;20117;-77
2022/11/05 01:50:36;;;;;;;6.80;4.00;;;9.90;99.90;;;9.80;100.00;100979.09;5192185;28;20640;-79
2022/11/05 01:53:25;;;;;;;7.53;3.50;;;9.80;99.90;;;9.73;100.00;100979.69;5191891;28;20055;-78
2022/11/05 01:56:02;;;;;;;8.32;3.83;;;9.80;99.90;;;9.68;100.00;100981.19;5192033;28;20057;-78
2022/11/05 01:58:40;;;;;;;9.63;4.25;;;9.70;99.90;;;9.63;100.00;100980.13;5191449;28;20505;-79
2022/11/05 02:01:16;;;;;;;7.97;3.67;;;9.70;99.90;;;9.58;100.00;100984.22;5192025;28;20041;-78
2022/11/05 02:03:52;;;;;;;8.52;3.88;;;9.60;99.90;;;9.54;100.00;100982.34;5209435;28;20168;-79
2022/11/05 02:06:25;;;;;;;7.13;3.53;;;9.60;99.90;;;9.46;100.00;100985.53;5209989;28;20056;-77
2022/11/05 02:09:04;;;;;;;7.57;4.22;;;9.50;99.90;;;9.42;100.00;100987.91;5209611;28;20045;-78
2022/11/05 02:11:36;;;;;;;9.48;3.83;;;9.50;99.90;;;9.36;100.00;100985.94;5192542;28;20228;-77
2022/11/05 02:14:09;;;;;;;9.68;4.25;;;9.50;99.90;;;9.34;100.00;100984.09;5190551;28;20457;-76
2022/11/05 02:16:46;;;;;;;6.90;3.67;;;9.40;99.90;;;9.28;100.00;100989.94;5190859;28;20076;-76
2022/11/05 02:20:09;;;;;;;8.48;4.07;;;9.30;99.90;;;9.22;100.00;101000.94;5208323;28;20067;-79
2022/11/05 02:23:45;;;;;;;8.10;3.70;;;9.30;99.90;;;9.15;100.00;101003.22;5190104;28;20056;-79
2022/11/05 02:26:54;;;;;;;8.48;4.18;;;9.20;99.90;;;9.10;100.00;101002.13;5208604;28;20114;-77
2022/11/05 02:30:03;;;;;;;8.60;3.63;;;9.20;99.90;;;9.05;100.00;101007.13;5191190;28;20089;-77
2022/11/05 02:32:55;;;;;;;6.20;3.20;;;9.10;99.90;;;9.01;100.00;101007.81;5209457;28;20044;-79
2022/11/05 02:35:47;;;;;;;7.38;3.50;;;9.10;99.90;;;8.98;100.00;101005.97;5190947;28;20103;-77
2022/11/05 02:38:29;;;;;;;6.75;3.55;;;9.10;99.90;;;8.94;100.00;100992.78;5190933;28;20061;-78
2022/11/05 02:41:09;;;;;;;6.30;3.35;;;9.00;99.90;;;8.91;100.00;101001.31;5191418;28;20046;-78
2022/11/05 02:43:56;;;;;;;7.97;3.58;;;9.00;99.90;;;8.89;100.00;100999.47;5190783;28;20567;-77
2022/11/05 02:46:42;;;;;;;7.45;3.58;;;9.00;99.90;;;8.87;100.00;101006.31;5208816;28;20063;-75
2022/11/05 02:49:27;;;;;;;7.78;3.88;;;9.00;99.90;;;8.87;100.00;101012.41;5178516;28;20042;-78
2022/11/05 02:52:05;;;;;;;7.97;3.45;;;8.90;99.90;;;8.87;100.00;101007.22;5188702;28;20050;-78
2022/11/05 02:54:45;;;;;;;8.48;4.22;;;8.90;99.90;;;8.89;100.00;101008.16;5171420;28;20088;-79
2022/11/05 02:57:21;;;;;;;7.88;4.10;;;9.00;99.90;;;8.93;100.00;101010.09;5171219;28;20048;-78
2022/11/05 03:00:01;;;;;;;10.35;4.03;;;9.00;99.90;;;9.00;100.00;101013.84;5188991;28;20041;-76
2022/11/05 03:02:34;;;;;;;9.45;4.00;;;9.00;99.90;;;9.03;100.00;101002.69;5170988;28;20141;-77
2022/11/05 03:05:09;;;;;;;9.05;4.20;;;9.10;99.90;;;9.04;100.00;101004.47;5170993;28;20050;-77
2022/11/05 03:07:53;;;;;;;10.43;4.85;;;9.10;99.90;;;9.03;100.00;100997.47;5188481;28;20443;-76
2022/11/05 03:10:40;;;;;;;8.82;4.28;;;9.10;99.90;;;9.01;100.00;101004.34;5170774;28;20145;-78
2022/11/05 03:13:20;;;;;;;8.65;4.38;;;9.10;99.90;;;8.96;100.00;100991.13;5170552;28;20457;-79
2022/11/05 03:15:58;;;;;;;8.88;4.35;;;9.00;99.90;;;8.92;100.00;101002.19;5170424;28;20042;-78
2022/11/05 03:18:41;;;;;;;10.98;4.35;;;9.00;99.90;;;8.90;100.00;101004.72;5170221;28;20169;-77
2022/11/05 03:21:23;;;;;;;10.45;4.80;;;9.00;99.90;;;8.89;100.00;101004.69;5171014;28;20461;-79
2022/11/05 03:24:03;;;;;;;10.85;4.63;;;9.00;99.90;;;8.88;100.00;101009.00;5188733;28;20427;-78
2022/11/05 03:26:41;;;;;;;8.90;4.47;;;9.00;99.90;;;8.91;100.00;101016.03;5191391;28;20053;-77
2022/11/05 03:29:21;;;;;;;9.55;4.57;;;9.00;99.90;;;8.94;100.00;101019.66;5190789;28;20042;-77
2022/11/05 03:31:56;;;;;;;8.70;4.22;;;9.00;99.90;;;8.99;100.00;101017.25;5173779;28;20058;-78
2022/11/05 03:34:35;;;;;;;6.70;3.45;;;9.00;99.90;;;9.05;100.00;101024.44;5173619;28;20072;-76
2022/11/05 03:37:09;;;;;;;9.05;4.13;;;9.10;99.90;;;9.09;100.00;101023.75;5173525;28;20088;-77
2022/11/05 03:39:49;;;;;;;9.07;4.50;;;9.10;99.90;;;9.12;100.00;101024.78;5171979;28;20045;-77
2022/11/05 03:42:27;;;;;;;15.40;6.88;;;9.20;99.90;;;9.15;100.00;101024.03;5173160;28;20410;-78
2022/11/05 03:45:08;;;;;;;10.68;5.32;;;9.20;99.90;;;9.16;100.00;101028.41;5190691;28;20038;-78
2022/11/05 03:47:43;;;;;;;11.07;5.05;;;9.20;99.90;;;9.20;100.00;101028.63;5174389;28;20463;-78
2022/11/05 03:50:21;;;;;;;10.45;5.22;;;9.30;99.90;;;9.21;100.00;101035.59;5190579;28;20130;-77
2022/11/05 03:53:00;;;;;;;11.10;4.82;;;9.30;99.90;;;9.23;100.00;101033.06;5173350;28;20155;-77
2022/11/05 03:55:36;;;;;;;9.00;4.40;;;9.30;99.90;;;9.21;100.00;101034.72;5173688;28;20042;-76
2022/11/05 03:58:11;;;;;;;10.70;5.05;;;9.30;99.90;;;9.23;100.00;101043.47;5172912;28;20069;-78
2022/11/05 04:00:43;;;;;;;8.00;4.20;;;9.30;99.90;;;9.22;100.00;101047.78;5191600;28;20050;-77
2022/11/05 04:03:15;;;;;;;8.98;4.20;;;9.30;99.90;;;9.24;100.00;101051.31;5172445;28;20049;-78
2022/11/05 04:13:22;;;;;;;9.82;5.13;;;9.30;99.90;;;9.26;100.00;101054.03;5191046;28;20042;-79
2022/11/05 04:14:36;;;;;;;9.63;5.22;;;9.30;99.90;;;9.30;100.00;101058.50;5148137;28;20078;-79
2022/11/05 04:17:08;;;;;;;10.27;4.80;;;9.30;99.90;;;9.31;100.00;101056.78;5176222;28;20058;-79
2022/11/05 04:25:27;;;;;;;12.90;6.13;;;9.40;99.90;;;9.27;100.00;101058.41;5174245;28;20080;-78
2022/11/05 04:28:00;;;;;;;14.15;6.78;;;9.30;99.90;;;9.25;100.00;101057.41;5173701;28;20125;-79
2022/11/05 04:30:31;;;;;;;9.90;5.40;;;9.30;99.90;;;9.24;100.00;101058.25;5174117;28;20050;-77
2022/11/05 04:33:06;;;;;;;12.38;5.53;;;9.30;99.90;;;9.24;100.00;101060.84;5190722;28;20042;-78
2022/11/05 04:35:41;;;;;;;10.82;5.30;;;9.30;99.90;;;9.22;100.00;101065.09;5189564;28;20525;-78
2022/11/05 04:38:16;;;;;;;9.00;4.63;;;9.30;99.90;;;9.20;100.00;101071.97;5173037;28;20054;-77
2022/11/05 04:40:50;;;;;;;12.57;6.05;;;9.30;99.90;;;9.16;100.00;101073.50;5172728;28;20452;-77
2022/11/05 04:43:22;;;;;;;10.32;4.72;;;9.30;99.90;;;9.12;100.00;101073.28;5172223;28;20087;-76
2022/11/05 04:45:54;;;;;;;10.30;5.15;;;9.20;99.90;;;9.04;100.00;101069.47;5171704;28;20494;-77
2022/11/05 04:48:26;;;;;;;11.73;5.57;;;9.10;99.90;;;9.00;100.00;101073.66;5189446;28;20499;-78
2022/11/05 04:50:59;;;;;;;9.68;4.57;;;9.10;99.90;;;8.95;100.00;101073.44;5172774;28;20157;-78
2022/11/05 04:53:31;;;;;;;9.35;4.53;;;9.00;99.90;;;8.91;100.00;101073.22;5172476;28;20113;-77
2022/11/05 04:56:15;;;;;;;9.95;5.05;;;9.00;99.90;;;8.84;100.00;101072.03;5172845;28;20097;-78
2022/11/05 04:58:47;;;;;;;10.25;4.80;;;8.90;99.90;;;8.76;100.00;101076.00;5244239;23;20134;-72
2022/11/05 05:01:21;;;;;;;9.80;4.70;;;8.90;99.90;;;8.69;100.00;101074.84;5167557;28;20052;-73
2022/11/05 05:03:54;;;;;;;11.57;5.43;;;8.80;99.90;;;8.63;100.00;101073.66;5185458;28;20495;-73
2022/11/05 05:06:26;;;;;;;11.40;5.47;;;8.70;99.90;;;8.61;100.00;101072.72;5185640;28;20069;-72
2022/11/05 05:08:58;;;;;;;11.25;5.53;;;8.70;99.90;;;8.60;100.00;101073.50;5185003;28;20405;-73
2022/11/05 05:11:32;;;;;;;10.93;5.38;;;8.70;99.90;;;8.59;100.00;101076.91;5185288;28;20042;-72
2022/11/05 05:14:04;;;;;;;11.50;5.47;;;8.70;99.90;;;8.54;100.00;101076.72;5185322;28;20117;-72
2022/11/05 05:16:36;;;;;;;11.68;5.65;;;8.60;99.90;;;8.52;100.00;101095.63;5185465;28;20072;-72
2022/11/05 05:19:08;;;;;;;11.57;4.95;;;8.60;99.90;;;8.48;100.00;101084.22;5184815;28;20045;-72
2022/11/05 05:21:39;;;;;;;10.55;5.68;;;8.60;99.90;;;8.45;100.00;101083.19;5185354;28;20391;-72
2022/11/05 05:24:14;;;;;;;13.55;5.88;;;8.50;99.90;;;8.43;100.00;101089.19;5184964;28;20053;-72
2022/11/05 05:26:50;;;;;;;10.02;4.38;;;8.50;99.90;;;8.42;100.00;101090.00;5185279;28;20046;-72
2022/11/05 05:29:22;;;;;;;9.63;4.63;;;8.50;99.90;;;8.37;100.00;101096.69;5184713;28;20092;-73
2022/11/05 05:31:54;;;;;;;11.35;4.90;;;8.50;99.90;;;8.31;100.00;101091.16;5185165;28;20121;-74
2022/11/05 05:34:26;;;;;;;10.77;4.70;;;8.40;99.90;;;8.27;100.00;101097.00;5185021;28;20073;-73
2022/11/05 05:36:58;;;;;;;10.32;5.18;;;8.40;99.90;;;8.25;100.00;101093.47;5185087;28;20052;-72
2022/11/05 05:39:30;;;;;;;10.38;4.85;;;8.30;99.90;;;8.22;100.00;101095.91;5184695;28;20053;-72
2022/11/05 05:42:04;;;;;;;12.68;5.60;;;8.30;99.90;;;8.19;100.00;101100.94;5167601;28;20058;-74
2022/11/05 05:44:37;;;;;;;11.73;5.13;;;8.30;99.90;;;8.20;100.00;101097.53;5184672;28;20042;-73
2022/11/05 05:47:09;;;;;;;11.13;5.13;;;8.30;99.90;;;8.23;100.00;101102.91;5167222;28;20054;-72
2022/11/05 05:49:41;;;;;;;10.85;5.05;;;8.30;99.90;;;8.19;100.00;101113.03;5183416;28;20038;-73
2022/11/05 05:52:13;;;;;;;12.00;5.35;;;8.30;99.90;;;8.16;100.00;101106.00;5184680;28;20042;-73
2022/11/05 05:54:45;;;;;;;10.23;4.85;;;8.30;99.90;;;8.14;100.00;101118.88;5184686;28;20044;-73
2022/11/05 05:57:18;;;;;;;11.15;4.88;;;8.20;99.90;;;8.11;100.00;101128.25;5184554;28;20104;-73
2022/11/05 05:59:50;;;;;;;9.73;4.65;;;8.20;99.90;;;8.08;100.00;101125.47;5184218;28;20129;-73
2022/11/05 06:02:23;;;;;;;9.90;4.60;;;8.20;99.90;;;8.07;100.00;101123.72;5184255;28;20077;-74
2022/11/05 06:04:55;;;;;;;11.00;5.03;;;8.20;99.90;;;8.07;100.00;101131.50;5184311;28;20042;-72
2022/11/05 06:07:27;;;;;;;11.35;4.90;;;8.20;99.90;;;8.05;100.00;101138.31;5184493;28;20112;-73
2022/11/05 06:09:59;;;;;;;11.15;5.45;;;8.10;99.90;;;8.05;100.00;101138.31;5183739;28;20042;-74
2022/11/05 06:12:33;;;;;;;11.75;5.60;;;8.10;99.90;;;8.05;100.00;101140.94;5184506;28;20084;-72
2022/11/05 06:15:06;;;;;;;12.07;5.40;;;8.10;99.90;;;8.03;100.00;101145.16;5184349;28;20053;-73
2022/11/05 06:17:38;;;;;;;11.48;5.70;;;8.20;99.90;;;8.00;100.00;101143.28;5184723;28;20046;-73
2022/11/05 06:20:11;;;;;;;10.32;4.82;;;8.10;99.90;;;7.97;100.00;101147.44;5183946;28;20049;-72
2022/11/05 06:22:43;;;;;;;10.13;4.90;;;8.10;99.90;;;7.92;100.00;101146.31;5184369;28;20042;-73
2022/11/05 06:25:16;;;;;;;11.35;4.82;;;8.00;99.90;;;7.87;100.00;101141.75;5183970;28;20562;-73
2022/11/05 06:27:49;;;;;;;13.32;4.95;;;8.00;99.90;;;7.84;100.00;101149.41;5166123;28;20049;-73
2022/11/05 06:30:22;;;;;;;12.40;5.95;;;8.00;99.90;;;7.78;100.00;101149.09;5183616;28;20200;-71
2022/11/05 06:32:54;;;;;;;10.07;4.40;;;7.90;99.90;;;7.75;100.00;101143.72;5184015;28;20690;-70
2022/11/05 06:35:27;;;;;;;10.90;5.07;;;7.90;99.90;;;7.73;100.00;101142.75;5184188;28;20506;-72
2022/11/05 06:38:00;;;;;;;9.60;5.00;;;7.90;99.90;;;7.70;100.00;101147.81;5166643;28;20519;-71
2022/11/05 06:40:32;;;;;;;11.32;5.10;;;7.80;99.90;;;7.67;100.00;101152.81;5183864;28;20037;-71
2022/11/05 06:43:05;;;;;;;9.25;4.50;;;7.80;99.90;;;7.64;100.00;101155.28;5184185;28;20044;-71
2022/11/05 06:45:37;;;;;;;9.93;4.68;;;7.70;99.90;;;7.59;100.00;101157.63;5166434;28;20050;-71
2022/11/05 06:48:09;;;;;;;11.65;5.35;;;7.70;99.90;;;7.57;100.00;101163.56;5183802;28;20085;-72
2022/11/05 06:50:45;;;;;;;10.38;5.50;;;7.70;99.90;;;7.57;100.00;101174.81;5184169;28;20132;-72
2022/11/05 06:53:17;;;;;;;9.13;4.60;;;7.70;99.90;;;7.56;100.00;101177.31;5183789;28;20065;-71
2022/11/05 06:55:49;;;;;;;11.57;5.25;;;7.70;99.90;;;7.55;100.00;101184.19;5184287;28;20052;-71
2022/11/05 06:58:22;;;;;;;10.30;4.88;;;7.70;99.90;;;7.55;100.00;101180.72;5183371;28;20502;-71
2022/11/05 07:00:54;;;;;;;10.02;5.75;;;7.70;99.90;;;7.55;100.00;101191.09;5186859;28;20413;-73
2022/11/05 07:03:27;;;;;;;12.20;5.10;;;7.70;99.90;;;7.58;100.00;101186.09;5187731;28;20054;-58
2022/11/05 07:05:59;;;;;;;12.00;5.20;;;7.70;99.90;;;7.61;100.00;101189.72;5187333;28;20038;-60
2022/11/05 07:08:33;;;;;;;11.88;5.85;;;7.70;99.90;;;7.67;100.00;101191.75;5169026;28;20050;-61
2022/11/05 07:11:06;;;;;;;10.38;4.80;;;7.80;99.90;;;7.70;100.00;101202.31;5187193;28;20049;-60
2022/11/05 07:13:39;;;;;;;11.10;4.88;;;7.80;99.90;;;7.71;100.00;101203.19;5187062;28;20041;-61
2022/11/05 07:16:12;;;;;;;9.80;5.20;;;7.80;99.90;;;7.71;100.00;101209.28;5187081;28;20522;-60
2022/11/05 07:18:44;;;;;;;11.20;5.55;;;7.80;99.90;;;7.71;100.00;101206.69;5186545;28;20499;-59
2022/11/05 07:21:18;;;;;;;12.57;5.20;;;7.90;99.90;;;7.74;100.00;101208.53;5187010;28;20053;-59
2022/11/05 07:23:50;;;;;;;13.25;5.78;;;7.90;99.90;;;7.78;100.00;101215.69;5186612;28;20056;-59
2022/11/05 07:26:22;;;;;;;11.43;5.20;;;7.90;99.90;;;7.81;100.00;101211.53;5186717;28;20049;-60
2022/11/05 07:28:56;;;;;;;12.65;6.15;;;7.90;99.90;;;7.88;100.00;101212.75;5186269;28;20120;-59
2022/11/05 07:31:28;;;;;;;13.57;6.30;;;8.00;99.90;;;7.95;100.00;101216.53;5187036;28;20069;-60
2022/11/05 07:34:00;;;;;;;15.27;5.93;;;8.00;99.90;;;8.01;100.00;101220.34;5186533;28;20042;-60
2022/11/05 07:36:32;;;;;;;13.18;5.28;;;8.10;99.90;;;8.07;100.00;101220.66;5186650;28;20058;-58
2022/11/05 07:39:05;;;;;;;11.02;5.35;;;8.20;99.90;;;8.13;100.00;101220.97;5186058;28;20498;-59
2022/11/05 07:41:37;;;;;;;11.88;4.85;;;8.20;99.90;;;8.20;100.00;101223.91;5186247;28;20128;-60
2022/11/05 07:44:13;;;;;;;11.77;5.30;;;8.30;99.90;;;8.26;100.00;101227.69;5178168;28;20099;-60
2022/11/05 07:46:45;;;;;;;13.68;5.95;;;8.40;99.90;;;8.34;100.00;101223.78;5176546;28;20046;-60
2022/11/05 07:49:18;;;;;;;11.90;5.55;;;8.40;99.90;;;8.39;100.00;101230.13;5185384;28;20517;-60
2022/11/05 07:51:50;;;;;;;12.80;5.72;;;8.50;99.90;;;8.47;100.00;101237.41;5186501;28;20050;-59
2022/11/05 07:54:25;;;;;;;12.27;5.53;;;8.60;99.90;;;8.54;100.00;101223.91;5185840;28;20054;-58
2022/11/05 07:56:57;;;;;;;;;;;8.60;99.90;;;8.61;100.00;101228.63;5186257;28;20112;-60
2022/11/05 07:59:30;;;;;;;13.25;5.85;;;8.70;99.90;;;8.68;100.00;101229.00;5184556;28;20271;-56
2022/11/05 08:02:02;;;;;;;9.77;4.95;;;8.70;99.90;;;8.76;100.00;101231.97;5189206;28;20053;-56
2022/11/05 08:04:34;;;;;;;11.60;5.70;;;8.80;99.90;;;8.82;100.00;101247.88;5196365;28;20125;-57
2022/11/05 08:07:06;;;;;;;12.65;5.22;;;8.90;99.90;;;8.88;100.00;101248.16;5185237;28;20124;-59
2022/11/05 08:09:38;;;;;;;13.27;5.88;;;8.90;99.90;;;8.94;100.00;101240.66;5184885;28;20129;-56
2022/11/05 08:12:10;;;;;;;11.60;5.53;;;9.00;99.90;;;9.03;100.00;101247.13;5184240;28;20053;-57
2022/11/05 08:14:44;;;;;;;12.38;5.63;;;9.10;99.90;;;9.10;100.00;101242.28;5184790;28;20046;-57
2022/11/05 08:17:17;;;;;;;12.05;5.13;;;9.20;99.90;;;9.19;100.00;101250.53;5184159;28;20045;-58
2022/11/05 08:19:49;;;;;;;10.25;4.65;;;9.20;99.90;;;9.33;100.00;101253.78;5183345;28;20041;-58
2022/11/05 08:22:21;;;;;;;9.35;4.57;;;9.30;99.90;;;9.55;100.00;101260.00;5176821;28;20494;-56
2022/11/05 08:24:53;;;;;;;12.60;5.55;;;9.50;99.90;;;9.83;100.00;101262.13;5183070;28;20042;-55
2022/11/05 08:27:25;;;;;;;11.23;5.43;;;9.70;99.90;;;10.20;100.00;101259.44;5185438;28;20415;-56
2022/11/05 08:29:58;;;;;;;10.90;4.75;;;10.00;99.90;;;10.53;100.00;101255.72;5185069;28;20056;-56
2022/11/05 08:32:30;;;;;;;9.30;4.53;;;10.40;99.90;;;10.80;100.00;101260.28;5185541;28;20038;-56
2022/11/05 08:35:03;;;;;;;10.88;5.00;;;10.70;99.90;;;10.97;100.00;101254.06;5185465;28;20046;-56
2022/11/05 08:37:35;;;;;;;9.23;4.25;;;10.80;99.90;;;11.14;100.00;101260.81;5185630;28;20049;-58
2022/11/05 08:40:09;;;;;;;8.30;4.32;;;11.00;99.90;;;11.32;100.00;101260.66;5181808;28;20046;-57
2022/11/05 08:42:41;;;;;;;8.85;4.03;;;11.20;99.90;;;11.50;100.00;101257.88;5185236;28;20054;-57
2022/11/05 08:45:14;;;;;;;10.60;4.05;;;11.40;99.90;;;11.64;100.00;101266.25;5185221;28;20050;-56
2022/11/05 08:47:46;;;;;;;7.68;3.50;;;11.50;99.90;;;11.73;100.00;101268.28;5181646;28;20531;-55
2022/11/05 08:50:19;;;;;;;7.18;3.55;;;11.60;99.90;;;11.84;100.00;101272.25;5174957;28;20042;-56
2022/11/05 08:52:51;;;;;;;7.10;3.00;;;11.70;99.90;;;11.96;100.00;101272.69;5182574;28;20049;-56
2022/11/05 08:55:24;;;;;;;7.20;3.33;;;11.80;99.90;;;12.11;100.00;101283.69;5185254;28;20033;-56
2022/11/05 08:57:56;;;;;;;7.53;3.00;;;11.90;99.90;;;12.23;100.00;101284.16;5181083;28;20041;-58
2022/11/05 09:00:33;;;;;;;6.25;3.00;;;12.00;99.90;;;12.34;100.00;101281.03;5180232;28;20183;-58
2022/11/05 09:03:07;;;;;;;5.55;2.53;;;12.10;99.90;;;12.50;100.00;101285.94;5184917;28;20101;-57
2022/11/05 09:05:41;;;;;;;7.68;2.80;;;12.30;99.90;;;12.63;100.00;101277.69;5180604;28;20435;-58
2022/11/05 09:08:16;;;;;;;7.28;3.10;;;12.40;99.90;;;12.79;100.00;101276.50;5185976;28;20088;-56
2022/11/05 09:10:49;;;;;;;8.45;3.08;;;12.50;99.90;;;12.91;100.00;101279.53;5188680;28;20122;-55
2022/11/05 09:13:21;;;;;;;5.82;2.90;;;12.60;99.90;;;13.04;100.00;101275.59;5181891;28;20042;-56
2022/11/05 09:15:54;;;;;;;8.88;3.08;;;12.70;99.90;;;13.19;100.00;101277.78;5183521;28;20037;-56
2022/11/05 09:18:26;;;;;;;6.35;3.17;;;12.90;99.90;;;13.31;100.00;101275.59;5165825;28;20049;-58
2022/11/05 09:20:59;;;;;;;8.77;3.40;;;13.00;99.90;;;13.40;100.00;101274.97;5182335;28;20037;-56
2022/11/05 09:23:31;;;;;;;8.35;3.42;;;13.10;99.90;;;13.46;100.00;101276.06;5182306;28;20133;-57
2022/11/05 09:26:03;;;;;;;9.00;3.50;;;13.10;99.90;;;13.50;100.00;101282.28;5183053;28;20050;-57
2022/11/05 09:28:35;;;;;;;8.88;3.35;;;13.20;99.90;;;13.61;100.00;101277.34;5182712;28;20046;-55
2022/11/05 09:31:11;;;;;;;7.57;3.25;;;13.30;99.90;;;13.65;100.00;101277.50;5183186;28;20050;-56
2022/11/05 09:33:43;;;;;;;7.07;3.00;;;13.30;99.90;;;13.73;100.00;101286.47;5183771;28;20042;-58
2022/11/05 09:36:15;;;;;;;5.38;2.83;;;13.40;99.90;;;13.81;100.00;101284.97;5184479;28;20049;-56
2022/11/05 09:38:47;;;;;;;7.68;2.50;;;13.50;99.90;;;13.90;100.00;101276.50;5184374;28;20052;-58
2022/11/05 09:41:27;;;;;;;7.57;3.15;;;13.60;99.90;;;14.01;100.00;101287.28;5184556;28;20499;-57
2022/11/05 09:44:03;;;;;;;10.35;3.35;;;13.60;99.90;;;14.08;100.00;101281.34;5184487;28;20471;-57
2022/11/05 09:46:43;;;;;;;5.68;2.55;;;13.70;99.90;;;14.16;100.00;101284.22;5184712;28;20048;-58
2022/11/05 09:49:26;;;;;;;5.68;2.92;;;13.80;99.90;;;14.24;100.00;101291.44;5184621;28;20052;-56
2022/11/05 09:52:00;;;;;;;4.22;2.25;;;13.90;99.90;;;14.34;100.00;101285.63;5184579;28;20412;-56
2022/11/05 09:54:32;;;;;;;4.72;2.35;;;14.00;99.90;;;14.43;100.00;101297.19;5184523;28;20054;-58
2022/11/05 09:57:08;;;;;;;4.53;2.67;;;14.10;99.90;;;14.43;100.00;101286.72;5184365;28;20060;-56
2022/11/05 09:59:45;;;;;;;5.32;2.38;;;14.10;99.90;;;14.45;99.70;101296.38;5184051;28;20050;-57
2022/11/05 10:02:22;;;;;;;4.53;2.28;;;14.10;99.90;;;14.49;99.45;101294.78;5184685;28;20061;-57
2022/11/05 10:04:57;;;;;;;5.07;2.28;;;14.10;99.90;;;14.55;99.38;101297.56;5184184;28;20498;-58
2022/11/05 10:07:44;;;;;;;7.10;2.90;;;14.20;99.90;;;14.55;98.72;101289.69;5184154;28;20120;-56
2022/11/05 10:10:29;;;;;;;5.60;2.13;;;14.20;99.90;;;14.59;99.54;101288.91;5184002;28;20125;-58
2022/11/05 10:13:06;;;;;;;7.13;2.50;;;14.30;99.90;;;14.65;100.00;101294.31;5184041;28;20049;-56
2022/11/05 10:15:46;;;;;;;5.10;2.55;;;14.30;99.90;;;14.67;100.00;101295.25;5184193;28;20133;-56
2022/11/05 10:18:26;;;;;;;6.85;2.60;;;14.30;99.90;;;14.56;99.22;101299.34;5183489;28;20061;-57
2022/11/05 10:20:59;;;;;;;5.97;2.80;;;14.30;99.90;;;14.45;99.56;101290.25;5184212;28;20054;-57
2022/11/05 10:23:32;;;;;;;5.22;2.03;;;14.20;99.90;;;14.42;100.00;101303.28;5183968;28;20050;-59
2022/11/05 10:26:09;;;;;;;4.43;2.13;;;14.20;99.90;;;14.41;100.00;101289.28;5183901;28;20042;-60
2022/11/05 10:28:41;;;;;;;4.65;1.80;;;14.10;99.90;;;14.53;100.00;101291.38;5183704;28;20499;-58
2022/11/05 10:31:19;;;;;;;5.15;2.30;;;14.20;99.90;;;14.73;100.00;101302.38;5184166;28;20046;-58
2022/11/05 10:34:00;;;;;;;3.85;1.92;;;14.30;99.90;;;14.79;99.17;101298.19;5183818;28;20414;-57
2022/11/05 10:36:36;;;;;;;3.88;2.00;;;14.40;99.90;;;14.85;97.75;101300.06;5188584;28;20046;-58
2022/11/05 10:39:13;;;;;;;4.45;1.95;;;14.50;99.90;;;14.85;97.51;101302.69;5187793;28;20460;-57
2022/11/05 10:42:13;;;;;;;6.30;2.10;;;14.50;99.90;;;14.82;97.24;101306.16;5188446;28;20069;-57
2022/11/05 10:44:53;;;;;;;2.55;1.63;;;14.50;99.90;;;14.85;96.81;101310.56;5188100;28;20045;-56
2022/11/05 10:47:52;;;;;;;5.18;2.00;;;14.50;99.90;;;14.82;95.77;101302.63;5187742;28;20491;-56
2022/11/05 10:50:29;;;;;;;4.35;1.60;;;14.50;99.90;;;14.73;95.25;101316.38;5187663;28;20135;-59
2022/11/05 10:53:09;;;;;;;4.43;1.90;;;14.50;99.90;;;14.64;95.96;101303.94;5187897;28;20076;-60
2022/11/05 10:55:44;;;;;;;2.65;1.58;;;14.40;99.90;;;14.56;96.64;101304.59;5187847;28;20328;-56
2022/11/05 10:58:23;;;;;;;3.65;1.77;;;14.30;99.90;;;14.48;96.79;101314.00;5289063;23;20092;-59
2022/11/05 11:01:10;;;;;;;4.07;1.83;;;14.20;99.90;;;14.42;95.94;101311.16;5179783;28;20066;-58
2022/11/05 11:03:45;;;;;;;5.03;1.67;;;14.20;99.90;;;14.36;96.79;101318.00;5184051;28;20053;-59
2022/11/05 11:06:25;;;;;;;3.95;1.50;;;14.10;99.90;;;14.39;99.23;101312.84;5183961;28;20046;-59
2022/11/05 11:09:00;;;;;;;2.25;1.42;;;14.10;99.90;;;14.49;98.92;101318.38;5179188;28;20057;-58
2022/11/05 11:11:34;;;;;;;;;;;14.20;99.90;;;14.52;97.73;101314.09;5175179;28;20046;-58
2022/11/05 11:14:21;;;;;;;4.32;1.60;;;14.20;99.90;;;14.64;96.61;101303.94;5174596;28;19952;-58
2022/11/05 11:16:56;;;;;;;3.88;1.40;;;14.30;99.90;;;14.74;96.21;101312.94;5188673;28;20046;-59
2022/11/05 11:19:31;;;;;;;2.58;1.40;;;14.40;99.90;;;14.79;94.51;101303.44;5177995;28;20054;-59
2022/11/05 11:22:19;;;;;;;;;;;14.50;99.90;;;14.89;93.68;101305.44;5184836;28;20153;-60
2022/11/05 11:24:53;;;;;;;4.35;1.20;;;14.60;99.90;;;15.28;100.00;101301.16;5186241;28;19928;-57